Cornland, Illinois
Current Conditions -  °F | °C
As of 8:52 PM on Monday 20 Oct 2014 (Local Time) from KSPI Reporting Station
Clear Clear  
Wind Chill: 50°   Ceiling: Unl
Heat Index: 50°   Visibility: 10mi
Dew Point: 43°   Wind: 3mph
Humidity: 77%   Direction: 240°WSW
Pressure: 29.99"   Gusts: NA
Location:  39.94°N, 89.4°W
Report Text: KSPI 210152Z 24003KT 10SM CLR 10/06 A2999 RMK AO2 SLP156 T01000061
Loading
Personal Weather Stations






























Interactive Weather Map
Tropical Storm Tracking
New forecast layout! Learn more

10-Day Weather Forecast

Advertisements
Track Severe Weather on mobile